sensor_id;sensor_type;location;lat;lon;timestamp;P1;durP1;ratioP1;P2;durP2;ratioP2
7719;SDS011;3902;49.474;8.616;2023-11-21T00:02:05;3.60;;;1.80;;
7719;SDS011;3902;49.474;8.616;2023-11-21T00:04:31;3.07;;;2.00;;
7719;SDS011;3902;49.474;8.616;2023-11-21T00:06:57;4.70;;;1.93;;
7719;SDS011;3902;49.474;8.616;2023-11-21T00:09:22;3.00;;;1.70;;
7719;SDS011;3902;49.474;8.616;2023-11-21T00:11:48;2.57;;;2.03;;
7719;SDS011;3902;49.474;8.616;2023-11-21T00:14:13;3.90;;;2.00;;
7719;SDS011;3902;49.474;8.616;2023-11-21T00:16:40;2.90;;;1.83;;
7719;SDS011;3902;49.474;8.616;2023-11-21T00:19:06;2.93;;;1.97;;
7719;SDS011;3902;49.474;8.616;2023-11-21T00:21:32;3.17;;;2.10;;
7719;SDS011;3902;49.474;8.616;2023-11-21T00:23:57;3.20;;;1.97;;
7719;SDS011;3902;49.474;8.616;2023-11-21T00:26:23;4.00;;;2.00;;
7719;SDS011;3902;49.474;8.616;2023-11-21T00:28:49;3.17;;;2.10;;
7719;SDS011;3902;49.474;8.616;2023-11-21T00:31:15;2.73;;;1.80;;
7719;SDS011;3902;49.474;8.616;2023-11-21T00:33:40;4.67;;;2.40;;
7719;SDS011;3902;49.474;8.616;2023-11-21T00:36:06;5.13;;;2.00;;
7719;SDS011;3902;49.474;8.616;2023-11-21T00:38:34;3.73;;;2.40;;
7719;SDS011;3902;49.474;8.616;2023-11-21T00:41:00;3.33;;;2.33;;
7719;SDS011;3902;49.474;8.616;2023-11-21T00:43:26;5.57;;;2.20;;
7719;SDS011;3902;49.474;8.616;2023-11-21T00:45:51;3.50;;;2.00;;
7719;SDS011;3902;49.474;8.616;2023-11-21T00:48:17;5.60;;;2.23;;
7719;SDS011;3902;49.474;8.616;2023-11-21T00:50:43;5.07;;;2.40;;
7719;SDS011;3902;49.474;8.616;2023-11-21T00:53:09;4.20;;;2.13;;
7719;SDS011;3902;49.474;8.616;2023-11-21T00:55:35;3.40;;;2.20;;
7719;SDS011;3902;49.474;8.616;2023-11-21T00:58:01;3.17;;;1.93;;
7719;SDS011;3902;49.474;8.616;2023-11-21T01:00:29;5.63;;;2.27;;
7719;SDS011;3902;49.474;8.616;2023-11-21T01:02:54;3.20;;;2.10;;
7719;SDS011;3902;49.474;8.616;2023-11-21T01:05:20;4.27;;;2.00;;
7719;SDS011;3902;49.474;8.616;2023-11-21T01:07:45;5.23;;;2.20;;
7719;SDS011;3902;49.474;8.616;2023-11-21T01:10:11;3.50;;;1.93;;
7719;SDS011;3902;49.474;8.616;2023-11-21T01:12:37;2.30;;;1.90;;
7719;SDS011;3902;49.474;8.616;2023-11-21T01:15:04;5.03;;;2.53;;
7719;SDS011;3902;49.474;8.616;2023-11-21T01:17:32;2.50;;;1.83;;
7719;SDS011;3902;49.474;8.616;2023-11-21T01:19:59;4.30;;;2.70;;
7719;SDS011;3902;49.474;8.616;2023-11-21T01:22:25;3.70;;;1.97;;
7719;SDS011;3902;49.474;8.616;2023-11-21T01:24:51;4.53;;;2.20;;
7719;SDS011;3902;49.474;8.616;2023-11-21T01:27:18;5.10;;;2.33;;
7719;SDS011;3902;49.474;8.616;2023-11-21T01:29:43;5.10;;;2.30;;
7719;SDS011;3902;49.474;8.616;2023-11-21T01:32:09;3.40;;;2.33;;
7719;SDS011;3902;49.474;8.616;2023-11-21T01:34:35;4.40;;;2.30;;
7719;SDS011;3902;49.474;8.616;2023-11-21T01:37:01;4.63;;;2.30;;
7719;SDS011;3902;49.474;8.616;2023-11-21T01:39:29;3.60;;;1.90;;
7719;SDS011;3902;49.474;8.616;2023-11-21T01:41:55;3.70;;;2.00;;
7719;SDS011;3902;49.474;8.616;2023-11-21T01:44:20;3.77;;;2.33;;
7719;SDS011;3902;49.474;8.616;2023-11-21T01:46:46;2.67;;;2.13;;
7719;SDS011;3902;49.474;8.616;2023-11-21T01:49:13;2.97;;;2.10;;
7719;SDS011;3902;49.474;8.616;2023-11-21T01:51:41;3.73;;;1.90;;
7719;SDS011;3902;49.474;8.616;2023-11-21T01:54:08;2.70;;;1.70;;
7719;SDS011;3902;49.474;8.616;2023-11-21T01:56:34;4.70;;;2.53;;
7719;SDS011;3902;49.474;8.616;2023-11-21T01:59:00;3.90;;;2.13;;
7719;SDS011;3902;49.474;8.616;2023-11-21T02:01:25;3.17;;;2.03;;
7719;SDS011;3902;49.474;8.616;2023-11-21T02:03:51;4.50;;;2.03;;
7719;SDS011;3902;49.474;8.616;2023-11-21T02:06:17;3.40;;;2.00;;
7719;SDS011;3902;49.474;8.616;2023-11-21T02:08:43;3.90;;;2.10;;
7719;SDS011;3902;49.474;8.616;2023-11-21T02:11:09;2.53;;;1.73;;
7719;SDS011;3902;49.474;8.616;2023-11-21T02:13:37;4.70;;;2.40;;
7719;SDS011;3902;49.474;8.616;2023-11-21T02:16:03;3.80;;;1.90;;
7719;SDS011;3902;49.474;8.616;2023-11-21T02:18:30;4.97;;;2.37;;
7719;SDS011;3902;49.474;8.616;2023-11-21T02:20:56;3.73;;;2.07;;
7719;SDS011;3902;49.474;8.616;2023-11-21T02:23:22;3.60;;;2.10;;
7719;SDS011;3902;49.474;8.616;2023-11-21T02:25:48;4.83;;;2.47;;
7719;SDS011;3902;49.474;8.616;2023-11-21T02:28:14;3.00;;;1.67;;
7719;SDS011;3902;49.474;8.616;2023-11-21T02:30:41;3.83;;;1.90;;
7719;SDS011;3902;49.474;8.616;2023-11-21T02:33:07;3.80;;;1.97;;
7719;SDS011;3902;49.474;8.616;2023-11-21T02:35:33;2.90;;;1.70;;
7719;SDS011;3902;49.474;8.616;2023-11-21T02:37:59;5.03;;;2.00;;
7719;SDS011;3902;49.474;8.616;2023-11-21T02:40:25;2.77;;;1.90;;
7719;SDS011;3902;49.474;8.616;2023-11-21T02:42:51;3.50;;;2.13;;
7719;SDS011;3902;49.474;8.616;2023-11-21T02:45:18;2.93;;;1.80;;
7719;SDS011;3902;49.474;8.616;2023-11-21T02:47:45;5.10;;;2.20;;
7719;SDS011;3902;49.474;8.616;2023-11-21T02:50:11;3.83;;;1.97;;
7719;SDS011;3902;49.474;8.616;2023-11-21T02:52:37;3.43;;;2.00;;
7719;SDS011;3902;49.474;8.616;2023-11-21T02:55:05;2.80;;;1.73;;
7719;SDS011;3902;49.474;8.616;2023-11-21T02:57:32;4.03;;;2.30;;
7719;SDS011;3902;49.474;8.616;2023-11-21T02:59:58;3.73;;;1.97;;
7719;SDS011;3902;49.474;8.616;2023-11-21T03:02:25;3.77;;;1.80;;
7719;SDS011;3902;49.474;8.616;2023-11-21T03:04:50;2.80;;;1.97;;
7719;SDS011;3902;49.474;8.616;2023-11-21T03:07:16;3.13;;;2.10;;
7719;SDS011;3902;49.474;8.616;2023-11-21T03:09:44;2.17;;;1.90;;
7719;SDS011;3902;49.474;8.616;2023-11-21T03:12:10;3.00;;;1.90;;
7719;SDS011;3902;49.474;8.616;2023-11-21T03:14:37;3.70;;;1.90;;
7719;SDS011;3902;49.474;8.616;2023-11-21T03:17:03;2.53;;;2.20;;
7719;SDS011;3902;49.474;8.616;2023-11-21T03:19:29;3.13;;;2.03;;
7719;SDS011;3902;49.474;8.616;2023-11-21T03:21:55;4.20;;;2.50;;
7719;SDS011;3902;49.474;8.616;2023-11-21T03:24:21;2.53;;;1.97;;
7719;SDS011;3902;49.474;8.616;2023-11-21T03:26:47;2.87;;;2.00;;
7719;SDS011;3902;49.474;8.616;2023-11-21T03:29:13;3.87;;;1.97;;
7719;SDS011;3902;49.474;8.616;2023-11-21T03:31:39;2.60;;;1.97;;
7719;SDS011;3902;49.474;8.616;2023-11-21T03:34:05;3.50;;;2.00;;
7719;SDS011;3902;49.474;8.616;2023-11-21T03:36:31;2.33;;;1.80;;
7719;SDS011;3902;49.474;8.616;2023-11-21T03:38:57;2.57;;;1.90;;
7719;SDS011;3902;49.474;8.616;2023-11-21T03:41:22;2.83;;;2.30;;
7719;SDS011;3902;49.474;8.616;2023-11-21T03:43:48;2.03;;;1.70;;
7719;SDS011;3902;49.474;8.616;2023-11-21T03:46:13;1.90;;;1.70;;
7719;SDS011;3902;49.474;8.616;2023-11-21T03:48:39;5.13;;;1.90;;
7719;SDS011;3902;49.474;8.616;2023-11-21T03:51:05;2.60;;;2.00;;
7719;SDS011;3902;49.474;8.616;2023-11-21T03:53:30;2.03;;;1.70;;
7719;SDS011;3902;49.474;8.616;2023-11-21T03:55:57;2.83;;;1.90;;
7719;SDS011;3902;49.474;8.616;2023-11-21T03:58:22;4.67;;;2.17;;
7719;SDS011;3902;49.474;8.616;2023-11-21T04:00:48;2.20;;;2.00;;
7719;SDS011;3902;49.474;8.616;2023-11-21T04:03:16;5.30;;;2.20;;
7719;SDS011;3902;49.474;8.616;2023-11-21T04:05:42;5.60;;;2.13;;
7719;SDS011;3902;49.474;8.616;2023-11-21T04:08:08;2.60;;;1.97;;
7719;SDS011;3902;49.474;8.616;2023-11-21T04:10:33;2.73;;;1.90;;
7719;SDS011;3902;49.474;8.616;2023-11-21T04:12:59;4.00;;;2.17;;
7719;SDS011;3902;49.474;8.616;2023-11-21T04:15:25;3.10;;;1.83;;
7719;SDS011;3902;49.474;8.616;2023-11-21T04:17:51;6.30;;;2.00;;
7719;SDS011;3902;49.474;8.616;2023-11-21T04:20:17;4.50;;;2.57;;
7719;SDS011;3902;49.474;8.616;2023-11-21T04:22:42;3.00;;;1.50;;
7719;SDS011;3902;49.474;8.616;2023-11-21T04:25:09;2.00;;;1.80;;
7719;SDS011;3902;49.474;8.616;2023-11-21T04:27:36;6.00;;;1.83;;
7719;SDS011;3902;49.474;8.616;2023-11-21T04:30:03;1.93;;;1.73;;
7719;SDS011;3902;49.474;8.616;2023-11-21T04:32:30;2.13;;;1.63;;
7719;SDS011;3902;49.474;8.616;2023-11-21T04:34:55;2.20;;;1.73;;
7719;SDS011;3902;49.474;8.616;2023-11-21T04:37:21;3.53;;;1.90;;
7719;SDS011;3902;49.474;8.616;2023-11-21T04:39:47;2.00;;;1.77;;
7719;SDS011;3902;49.474;8.616;2023-11-21T04:42:13;2.27;;;1.60;;
7719;SDS011;3902;49.474;8.616;2023-11-21T04:44:38;2.63;;;1.87;;
7719;SDS011;3902;49.474;8.616;2023-11-21T04:47:06;3.10;;;2.20;;
7719;SDS011;3902;49.474;8.616;2023-11-21T04:49:32;2.87;;;1.87;;
7719;SDS011;3902;49.474;8.616;2023-11-21T04:51:58;3.20;;;1.90;;
7719;SDS011;3902;49.474;8.616;2023-11-21T04:54:24;2.47;;;1.70;;
7719;SDS011;3902;49.474;8.616;2023-11-21T04:56:50;2.60;;;1.80;;
7719;SDS011;3902;49.474;8.616;2023-11-21T04:59:15;3.80;;;1.70;;
7719;SDS011;3902;49.474;8.616;2023-11-21T05:01:41;3.00;;;1.80;;
7719;SDS011;3902;49.474;8.616;2023-11-21T05:04:06;2.00;;;1.70;;
7719;SDS011;3902;49.474;8.616;2023-11-21T05:06:33;4.23;;;1.97;;
7719;SDS011;3902;49.474;8.616;2023-11-21T05:08:59;2.43;;;1.90;;
7719;SDS011;3902;49.474;8.616;2023-11-21T05:11:27;2.17;;;1.60;;
7719;SDS011;3902;49.474;8.616;2023-11-21T05:13:57;2.73;;;1.90;;
7719;SDS011;3902;49.474;8.616;2023-11-21T05:16:25;3.57;;;1.83;;
7719;SDS011;3902;49.474;8.616;2023-11-21T05:18:52;2.17;;;1.97;;
7719;SDS011;3902;49.474;8.616;2023-11-21T05:21:18;3.33;;;1.97;;
7719;SDS011;3902;49.474;8.616;2023-11-21T05:23:45;2.53;;;2.00;;
7719;SDS011;3902;49.474;8.616;2023-11-21T05:26:11;2.73;;;2.00;;
7719;SDS011;3902;49.474;8.616;2023-11-21T05:28:36;2.30;;;1.87;;
7719;SDS011;3902;49.474;8.616;2023-11-21T05:31:02;3.10;;;2.07;;
7719;SDS011;3902;49.474;8.616;2023-11-21T05:33:27;2.10;;;1.80;;
7719;SDS011;3902;49.474;8.616;2023-11-21T05:35:53;2.33;;;2.00;;
7719;SDS011;3902;49.474;8.616;2023-11-21T05:38:18;3.20;;;1.77;;
7719;SDS011;3902;49.474;8.616;2023-11-21T05:40:46;2.27;;;2.00;;
7719;SDS011;3902;49.474;8.616;2023-11-21T05:43:12;2.70;;;1.77;;
7719;SDS011;3902;49.474;8.616;2023-11-21T05:45:38;3.77;;;1.97;;
7719;SDS011;3902;49.474;8.616;2023-11-21T05:48:04;3.43;;;2.40;;
7719;SDS011;3902;49.474;8.616;2023-11-21T05:50:31;3.20;;;2.20;;
7719;SDS011;3902;49.474;8.616;2023-11-21T05:52:57;3.40;;;2.40;;
7719;SDS011;3902;49.474;8.616;2023-11-21T05:55:25;3.30;;;2.07;;
7719;SDS011;3902;49.474;8.616;2023-11-21T05:57:51;4.70;;;2.30;;
7719;SDS011;3902;49.474;8.616;2023-11-21T06:00:16;2.90;;;2.27;;
7719;SDS011;3902;49.474;8.616;2023-11-21T06:02:46;3.10;;;2.30;;
7719;SDS011;3902;49.474;8.616;2023-11-21T06:05:12;2.17;;;1.90;;
7719;SDS011;3902;49.474;8.616;2023-11-21T06:07:38;2.30;;;2.10;;
7719;SDS011;3902;49.474;8.616;2023-11-21T06:10:05;3.70;;;2.10;;
7719;SDS011;3902;49.474;8.616;2023-11-21T06:12:34;2.50;;;2.23;;
7719;SDS011;3902;49.474;8.616;2023-11-21T06:15:01;2.57;;;2.37;;
7719;SDS011;3902;49.474;8.616;2023-11-21T06:17:30;2.40;;;2.20;;
7719;SDS011;3902;49.474;8.616;2023-11-21T06:19:56;6.50;;;3.60;;
7719;SDS011;3902;49.474;8.616;2023-11-21T06:22:21;3.73;;;2.90;;
7719;SDS011;3902;49.474;8.616;2023-11-21T06:24:47;3.27;;;2.97;;
7719;SDS011;3902;49.474;8.616;2023-11-21T06:27:13;3.17;;;2.87;;
7719;SDS011;3902;49.474;8.616;2023-11-21T06:29:39;3.17;;;2.83;;
7719;SDS011;3902;49.474;8.616;2023-11-21T06:32:04;2.90;;;2.63;;
7719;SDS011;3902;49.474;8.616;2023-11-21T06:34:30;3.60;;;3.13;;
7719;SDS011;3902;49.474;8.616;2023-11-21T06:36:56;3.20;;;2.90;;
7719;SDS011;3902;49.474;8.616;2023-11-21T06:39:21;4.60;;;2.90;;
7719;SDS011;3902;49.474;8.616;2023-11-21T06:41:48;3.40;;;2.83;;
7719;SDS011;3902;49.474;8.616;2023-11-21T06:44:17;3.17;;;2.87;;
7719;SDS011;3902;49.474;8.616;2023-11-21T06:46:42;3.83;;;3.50;;
7719;SDS011;3902;49.474;8.616;2023-11-21T06:49:08;3.60;;;3.30;;
7719;SDS011;3902;49.474;8.616;2023-11-21T06:51:34;6.00;;;3.47;;
7719;SDS011;3902;49.474;8.616;2023-11-21T06:53:59;4.43;;;3.00;;
7719;SDS011;3902;49.474;8.616;2023-11-21T06:56:25;4.03;;;3.63;;
7719;SDS011;3902;49.474;8.616;2023-11-21T06:58:50;4.97;;;3.40;;
7719;SDS011;3902;49.474;8.616;2023-11-21T07:01:18;4.60;;;3.07;;
7719;SDS011;3902;49.474;8.616;2023-11-21T07:03:44;5.50;;;3.97;;
7719;SDS011;3902;49.474;8.616;2023-11-21T07:06:10;4.13;;;3.17;;
7719;SDS011;3902;49.474;8.616;2023-11-21T07:08:36;4.67;;;4.00;;
7719;SDS011;3902;49.474;8.616;2023-11-21T07:11:02;4.23;;;3.83;;
7719;SDS011;3902;49.474;8.616;2023-11-21T07:13:29;4.27;;;3.87;;
7719;SDS011;3902;49.474;8.616;2023-11-21T07:15:59;5.60;;;4.20;;
7719;SDS011;3902;49.474;8.616;2023-11-21T07:18:25;3.77;;;3.43;;
7719;SDS011;3902;49.474;8.616;2023-11-21T07:20:50;4.47;;;4.00;;
7719;SDS011;3902;49.474;8.616;2023-11-21T07:23:17;4.30;;;3.90;;
7719;SDS011;3902;49.474;8.616;2023-11-21T07:25:42;4.43;;;3.70;;
7719;SDS011;3902;49.474;8.616;2023-11-21T07:28:08;4.53;;;4.07;;
7719;SDS011;3902;49.474;8.616;2023-11-21T07:30:34;6.83;;;4.53;;
7719;SDS011;3902;49.474;8.616;2023-11-21T07:32:59;4.67;;;4.10;;
7719;SDS011;3902;49.474;8.616;2023-11-21T07:35:25;5.27;;;4.73;;
7719;SDS011;3902;49.474;8.616;2023-11-21T07:37:51;6.23;;;4.40;;
7719;SDS011;3902;49.474;8.616;2023-11-21T07:40:17;5.00;;;4.60;;
7719;SDS011;3902;49.474;8.616;2023-11-21T07:42:42;5.30;;;4.80;;
7719;SDS011;3902;49.474;8.616;2023-11-21T07:45:08;4.90;;;4.40;;
7719;SDS011;3902;49.474;8.616;2023-11-21T07:47:34;5.83;;;5.30;;
7719;SDS011;3902;49.474;8.616;2023-11-21T07:50:00;4.70;;;4.17;;
7719;SDS011;3902;49.474;8.616;2023-11-21T07:52:28;4.70;;;4.30;;
7719;SDS011;3902;49.474;8.616;2023-11-21T07:54:53;5.33;;;4.47;;
7719;SDS011;3902;49.474;8.616;2023-11-21T07:57:19;4.93;;;4.43;;
7719;SDS011;3902;49.474;8.616;2023-11-21T07:59:44;4.83;;;4.43;;
7719;SDS011;3902;49.474;8.616;2023-11-21T08:02:10;5.60;;;3.70;;
7719;SDS011;3902;49.474;8.616;2023-11-21T08:04:35;4.60;;;4.20;;
7719;SDS011;3902;49.474;8.616;2023-11-21T08:07:01;4.70;;;4.30;;
7719;SDS011;3902;49.474;8.616;2023-11-21T08:09:28;6.20;;;4.07;;
7719;SDS011;3902;49.474;8.616;2023-11-21T08:11:54;4.03;;;3.73;;
7719;SDS011;3902;49.474;8.616;2023-11-21T08:14:20;4.60;;;4.20;;
7719;SDS011;3902;49.474;8.616;2023-11-21T08:16:46;4.87;;;4.47;;
7719;SDS011;3902;49.474;8.616;2023-11-21T08:19:12;4.80;;;4.07;;
7719;SDS011;3902;49.474;8.616;2023-11-21T08:21:37;4.17;;;3.87;;
7719;SDS011;3902;49.474;8.616;2023-11-21T08:24:04;3.77;;;3.47;;
7719;SDS011;3902;49.474;8.616;2023-11-21T08:26:30;4.73;;;4.27;;
7719;SDS011;3902;49.474;8.616;2023-11-21T08:28:56;5.10;;;4.70;;
7719;SDS011;3902;49.474;8.616;2023-11-21T08:31:25;4.50;;;4.10;;
7719;SDS011;3902;49.474;8.616;2023-11-21T08:33:51;4.27;;;3.87;;
7719;SDS011;3902;49.474;8.616;2023-11-21T08:36:19;4.77;;;4.37;;
7719;SDS011;3902;49.474;8.616;2023-11-21T08:38:46;4.57;;;4.17;;
7719;SDS011;3902;49.474;8.616;2023-11-21T08:41:11;4.63;;;4.23;;
7719;SDS011;3902;49.474;8.616;2023-11-21T08:43:37;4.33;;;3.93;;
7719;SDS011;3902;49.474;8.616;2023-11-21T08:46:04;4.17;;;3.87;;
7719;SDS011;3902;49.474;8.616;2023-11-21T08:48:34;4.00;;;3.70;;
7719;SDS011;3902;49.474;8.616;2023-11-21T08:51:01;4.23;;;3.93;;
7719;SDS011;3902;49.474;8.616;2023-11-21T08:53:27;3.87;;;3.57;;
7719;SDS011;3902;49.474;8.616;2023-11-21T08:55:52;3.63;;;3.43;;
7719;SDS011;3902;49.474;8.616;2023-11-21T08:58:19;3.97;;;3.67;;
7719;SDS011;3902;49.474;8.616;2023-11-21T09:00:44;3.47;;;3.17;;
7719;SDS011;3902;49.474;8.616;2023-11-21T09:03:11;3.57;;;3.20;;
7719;SDS011;3902;49.474;8.616;2023-11-21T09:05:38;3.10;;;2.90;;
7719;SDS011;3902;49.474;8.616;2023-11-21T09:08:04;3.30;;;2.93;;
7719;SDS011;3902;49.474;8.616;2023-11-21T09:10:30;3.00;;;2.80;;
7719;SDS011;3902;49.474;8.616;2023-11-21T09:12:55;2.80;;;2.53;;
7719;SDS011;3902;49.474;8.616;2023-11-21T09:15:21;3.40;;;3.10;;
7719;SDS011;3902;49.474;8.616;2023-11-21T09:17:47;2.77;;;2.57;;
7719;SDS011;3902;49.474;8.616;2023-11-21T09:20:13;3.20;;;2.90;;
7719;SDS011;3902;49.474;8.616;2023-11-21T09:22:40;2.80;;;2.60;;
7719;SDS011;3902;49.474;8.616;2023-11-21T09:25:05;2.70;;;2.50;;
7719;SDS011;3902;49.474;8.616;2023-11-21T09:27:33;2.17;;;2.07;;
7719;SDS011;3902;49.474;8.616;2023-11-21T09:30:00;2.93;;;2.33;;
7719;SDS011;3902;49.474;8.616;2023-11-21T09:32:26;2.47;;;1.93;;
7719;SDS011;3902;49.474;8.616;2023-11-21T09:34:51;2.20;;;2.00;;
7719;SDS011;3902;49.474;8.616;2023-11-21T09:37:18;2.07;;;1.87;;
7719;SDS011;3902;49.474;8.616;2023-11-21T09:39:44;2.30;;;1.77;;
7719;SDS011;3902;49.474;8.616;2023-11-21T09:42:17;1.80;;;1.70;;
7719;SDS011;3902;49.474;8.616;2023-11-21T09:47:26;2.00;;;1.90;;
7719;SDS011;3902;49.474;8.616;2023-11-21T09:49:53;2.07;;;1.70;;
7719;SDS011;3902;49.474;8.616;2023-11-21T09:52:24;1.60;;;1.50;;
7719;SDS011;3902;49.474;8.616;2023-11-21T09:54:51;2.63;;;1.80;;
7719;SDS011;3902;49.474;8.616;2023-11-21T09:57:19;1.60;;;1.50;;
7719;SDS011;3902;49.474;8.616;2023-11-21T09:59:49;1.97;;;1.70;;
7719;SDS011;3902;49.474;8.616;2023-11-21T10:02:20;3.27;;;2.03;;
7719;SDS011;3902;49.474;8.616;2023-11-21T10:04:47;1.83;;;1.73;;
7719;SDS011;3902;49.474;8.616;2023-11-21T10:07:13;1.80;;;1.70;;
7719;SDS011;3902;49.474;8.616;2023-11-21T10:09:42;2.53;;;1.90;;
7719;SDS011;3902;49.474;8.616;2023-11-21T10:12:08;2.60;;;2.40;;
7719;SDS011;3902;49.474;8.616;2023-11-21T10:14:37;3.40;;;2.40;;
7719;SDS011;3902;49.474;8.616;2023-11-21T10:17:06;3.57;;;2.40;;
7719;SDS011;3902;49.474;8.616;2023-11-21T10:19:33;2.70;;;2.50;;
7719;SDS011;3902;49.474;8.616;2023-11-21T10:22:01;3.10;;;2.30;;
7719;SDS011;3902;49.474;8.616;2023-11-21T10:24:27;2.90;;;2.70;;
7719;SDS011;3902;49.474;8.616;2023-11-21T10:26:52;3.10;;;2.90;;
7719;SDS011;3902;49.474;8.616;2023-11-21T10:29:18;3.07;;;2.80;;
7719;SDS011;3902;49.474;8.616;2023-11-21T10:31:48;3.77;;;3.30;;
7719;SDS011;3902;49.474;8.616;2023-11-21T10:34:15;4.00;;;3.60;;
7719;SDS011;3902;49.474;8.616;2023-11-21T10:36:44;3.50;;;3.23;;
7719;SDS011;3902;49.474;8.616;2023-11-21T10:39:17;4.17;;;3.70;;
7719;SDS011;3902;49.474;8.616;2023-11-21T10:41:47;3.50;;;3.20;;
7719;SDS011;3902;49.474;8.616;2023-11-21T10:44:14;3.80;;;3.50;;
7719;SDS011;3902;49.474;8.616;2023-11-21T10:46:45;4.20;;;3.90;;
7719;SDS011;3902;49.474;8.616;2023-11-21T10:49:16;4.40;;;4.00;;
7719;SDS011;3902;49.474;8.616;2023-11-21T10:51:43;4.50;;;4.10;;
7719;SDS011;3902;49.474;8.616;2023-11-21T10:54:09;4.37;;;3.97;;
7719;SDS011;3902;49.474;8.616;2023-11-21T10:56:34;4.73;;;4.33;;
7719;SDS011;3902;49.474;8.616;2023-11-21T10:59:05;4.73;;;4.20;;
7719;SDS011;3902;49.474;8.616;2023-11-21T11:01:36;3.90;;;3.60;;
7719;SDS011;3902;49.474;8.616;2023-11-21T11:04:02;4.10;;;3.80;;
7719;SDS011;3902;49.474;8.616;2023-11-21T11:06:31;4.67;;;4.20;;
7719;SDS011;3902;49.474;8.616;2023-11-21T11:08:57;4.77;;;3.90;;
7719;SDS011;3902;49.474;8.616;2023-11-21T11:11:25;3.83;;;3.53;;
7719;SDS011;3902;49.474;8.616;2023-11-21T11:13:50;4.00;;;3.60;;
7719;SDS011;3902;49.474;8.616;2023-11-21T11:16:18;3.83;;;3.53;;
7719;SDS011;3902;49.474;8.616;2023-11-21T11:18:43;4.23;;;3.93;;
7719;SDS011;3902;49.474;8.616;2023-11-21T11:29:31;3.87;;;3.57;;
7719;SDS011;3902;49.474;8.616;2023-11-21T11:35:07;4.30;;;3.93;;
7719;SDS011;3902;49.474;8.616;2023-11-21T11:37:41;4.50;;;3.30;;
7719;SDS011;3902;49.474;8.616;2023-11-21T11:40:07;3.10;;;2.83;;
7719;SDS011;3902;49.474;8.616;2023-11-21T11:42:35;3.80;;;3.50;;
7719;SDS011;3902;49.474;8.616;2023-11-21T11:45:01;3.93;;;3.53;;
7719;SDS011;3902;49.474;8.616;2023-11-21T11:47:32;5.40;;;3.83;;
7719;SDS011;3902;49.474;8.616;2023-11-21T11:49:59;7.60;;;3.43;;
7719;SDS011;3902;49.474;8.616;2023-11-21T11:52:36;3.80;;;3.40;;
7719;SDS011;3902;49.474;8.616;2023-11-21T11:55:07;4.13;;;3.60;;
7719;SDS011;3902;49.474;8.616;2023-11-21T11:57:38;4.50;;;3.17;;
7719;SDS011;3902;49.474;8.616;2023-11-21T12:00:08;4.17;;;3.00;;
7719;SDS011;3902;49.474;8.616;2023-11-21T12:02:48;5.13;;;3.40;;
7719;SDS011;3902;49.474;8.616;2023-11-21T12:05:17;3.60;;;3.30;;
7719;SDS011;3902;49.474;8.616;2023-11-21T12:07:51;2.87;;;2.67;;
7719;SDS011;3902;49.474;8.616;2023-11-21T12:10:19;3.57;;;3.23;;
7719;SDS011;3902;49.474;8.616;2023-11-21T12:12:56;3.60;;;3.27;;
7719;SDS011;3902;49.474;8.616;2023-11-21T12:15:26;3.30;;;3.00;;
7719;SDS011;3902;49.474;8.616;2023-11-21T12:17:55;3.67;;;3.33;;
7719;SDS011;3902;49.474;8.616;2023-11-21T12:20:21;3.80;;;3.17;;
7719;SDS011;3902;49.474;8.616;2023-11-21T12:22:49;3.77;;;2.97;;
7719;SDS011;3902;49.474;8.616;2023-11-21T12:25:16;3.00;;;2.80;;
7719;SDS011;3902;49.474;8.616;2023-11-21T12:27:46;2.90;;;2.70;;
7719;SDS011;3902;49.474;8.616;2023-11-21T12:30:17;5.00;;;3.23;;
7719;SDS011;3902;49.474;8.616;2023-11-21T12:32:44;3.30;;;2.67;;
7719;SDS011;3902;49.474;8.616;2023-11-21T12:35:13;2.57;;;2.37;;
7719;SDS011;3902;49.474;8.616;2023-11-21T12:37:39;3.70;;;3.10;;
7719;SDS011;3902;49.474;8.616;2023-11-21T12:40:07;2.97;;;2.70;;
7719;SDS011;3902;49.474;8.616;2023-11-21T12:42:36;3.23;;;2.60;;
7719;SDS011;3902;49.474;8.616;2023-11-21T12:45:07;3.40;;;3.10;;
7719;SDS011;3902;49.474;8.616;2023-11-21T12:47:34;3.97;;;2.97;;
7719;SDS011;3902;49.474;8.616;2023-11-21T12:50:01;3.70;;;3.00;;
7719;SDS011;3902;49.474;8.616;2023-11-21T12:52:30;2.50;;;2.30;;
7719;SDS011;3902;49.474;8.616;2023-11-21T12:54:56;3.97;;;2.73;;
7719;SDS011;3902;49.474;8.616;2023-11-21T12:57:25;2.83;;;2.60;;
7719;SDS011;3902;49.474;8.616;2023-11-21T12:59:52;3.67;;;3.00;;
7719;SDS011;3902;49.474;8.616;2023-11-21T13:02:22;3.87;;;2.90;;
7719;SDS011;3902;49.474;8.616;2023-11-21T13:04:53;2.40;;;2.20;;
7719;SDS011;3902;49.474;8.616;2023-11-21T13:07:19;3.40;;;2.93;;
7719;SDS011;3902;49.474;8.616;2023-11-21T13:09:47;3.00;;;2.70;;
7719;SDS011;3902;49.474;8.616;2023-11-21T13:12:16;3.03;;;2.73;;
7719;SDS011;3902;49.474;8.616;2023-11-21T13:14:45;3.10;;;2.57;;
7719;SDS011;3902;49.474;8.616;2023-11-21T13:17:11;2.63;;;2.37;;
7719;SDS011;3902;49.474;8.616;2023-11-21T13:19:37;2.60;;;2.40;;
7719;SDS011;3902;49.474;8.616;2023-11-21T13:22:03;2.87;;;2.03;;
7719;SDS011;3902;49.474;8.616;2023-11-21T13:24:29;2.60;;;2.40;;
7719;SDS011;3902;49.474;8.616;2023-11-21T13:26:55;2.80;;;1.87;;
7719;SDS011;3902;49.474;8.616;2023-11-21T13:29:20;2.23;;;1.80;;
7719;SDS011;3902;49.474;8.616;2023-11-21T13:31:46;2.70;;;2.00;;
7719;SDS011;3902;49.474;8.616;2023-11-21T13:34:15;2.33;;;1.60;;
7719;SDS011;3902;49.474;8.616;2023-11-21T13:36:44;2.53;;;2.20;;
7719;SDS011;3902;49.474;8.616;2023-11-21T13:39:10;1.93;;;1.73;;
7719;SDS011;3902;49.474;8.616;2023-11-21T13:41:40;2.03;;;1.83;;
7719;SDS011;3902;49.474;8.616;2023-11-21T13:44:06;1.73;;;1.60;;
7719;SDS011;3902;49.474;8.616;2023-11-21T13:46:51;2.13;;;1.70;;
7719;SDS011;3902;49.474;8.616;2023-11-21T13:49:16;2.77;;;1.60;;
7719;SDS011;3902;49.474;8.616;2023-11-21T13:51:43;2.03;;;1.83;;
7719;SDS011;3902;49.474;8.616;2023-11-21T13:54:15;2.30;;;1.77;;
7719;SDS011;3902;49.474;8.616;2023-11-21T13:56:41;2.43;;;2.07;;
7719;SDS011;3902;49.474;8.616;2023-11-21T13:59:09;2.90;;;2.30;;
7719;SDS011;3902;49.474;8.616;2023-11-21T14:01:45;2.93;;;2.60;;
7719;SDS011;3902;49.474;8.616;2023-11-21T14:04:21;2.20;;;2.00;;
7719;SDS011;3902;49.474;8.616;2023-11-21T14:07:04;2.90;;;2.37;;
7719;SDS011;3902;49.474;8.616;2023-11-21T14:09:47;3.10;;;2.80;;
7719;SDS011;3902;49.474;8.616;2023-11-21T14:12:14;3.60;;;2.70;;
7719;SDS011;3902;49.474;8.616;2023-11-21T14:14:41;3.17;;;2.87;;
7719;SDS011;3902;49.474;8.616;2023-11-21T14:17:06;3.93;;;2.60;;
7719;SDS011;3902;49.474;8.616;2023-11-21T14:19:32;2.83;;;2.50;;
7719;SDS011;3902;49.474;8.616;2023-11-21T14:21:59;4.10;;;2.33;;
7719;SDS011;3902;49.474;8.616;2023-11-21T14:24:25;3.30;;;2.43;;
7719;SDS011;3902;49.474;8.616;2023-11-21T14:26:51;2.90;;;2.10;;
7719;SDS011;3902;49.474;8.616;2023-11-21T14:29:17;2.80;;;2.33;;
7719;SDS011;3902;49.474;8.616;2023-11-21T14:31:47;2.47;;;2.20;;
7719;SDS011;3902;49.474;8.616;2023-11-21T14:34:13;14.40;;;2.90;;
7719;SDS011;3902;49.474;8.616;2023-11-21T14:36:40;2.40;;;2.20;;
7719;SDS011;3902;49.474;8.616;2023-11-21T14:39:06;2.73;;;2.30;;
7719;SDS011;3902;49.474;8.616;2023-11-21T14:41:34;2.77;;;2.20;;
7719;SDS011;3902;49.474;8.616;2023-11-21T14:44:03;2.90;;;2.57;;
7719;SDS011;3902;49.474;8.616;2023-11-21T14:46:29;2.50;;;2.30;;
7719;SDS011;3902;49.474;8.616;2023-11-21T14:48:55;3.40;;;2.10;;
7719;SDS011;3902;49.474;8.616;2023-11-21T14:51:44;5.00;;;2.20;;
7719;SDS011;3902;49.474;8.616;2023-11-21T14:54:24;4.40;;;2.60;;
7719;SDS011;3902;49.474;8.616;2023-11-21T14:57:05;4.70;;;2.17;;
7719;SDS011;3902;49.474;8.616;2023-11-21T14:59:35;4.23;;;2.43;;
7719;SDS011;3902;49.474;8.616;2023-11-21T15:02:01;2.90;;;2.60;;
7719;SDS011;3902;49.474;8.616;2023-11-21T15:04:39;2.70;;;2.37;;
7719;SDS011;3902;49.474;8.616;2023-11-21T15:07:07;4.73;;;2.83;;
7719;SDS011;3902;49.474;8.616;2023-11-21T15:09:33;2.80;;;2.50;;
7719;SDS011;3902;49.474;8.616;2023-11-21T15:11:59;5.63;;;2.70;;
7719;SDS011;3902;49.474;8.616;2023-11-21T15:14:38;3.13;;;2.83;;
7719;SDS011;3902;49.474;8.616;2023-11-21T15:17:04;5.93;;;2.90;;
7719;SDS011;3902;49.474;8.616;2023-11-21T15:19:31;4.37;;;2.80;;
7719;SDS011;3902;49.474;8.616;2023-11-21T15:21:56;3.30;;;2.60;;
7719;SDS011;3902;49.474;8.616;2023-11-21T15:24:23;6.57;;;3.07;;
7719;SDS011;3902;49.474;8.616;2023-11-21T15:26:49;5.10;;;3.13;;
7719;SDS011;3902;49.474;8.616;2023-11-21T15:29:15;4.43;;;3.37;;